Time;durP1;ratioP1;P1;durP2;ratioP2;P2;SDS_P1;SDS_P2;PMS_P1;PMS_P2;Temp;Humidity;BMP_temperature;BMP_pressure;BME280_temperature;BME280_humidity;BME280_pressure;Samples;Min_cycle;Max_cycle;Signal;HPM_P1;HPM_P2
2022/07/31 00:01:45;;;;;;;3.42;3.10;;;;;;;16.58;97.38;96011.69;1651513;85;20996;-85
2022/07/31 00:04:11;;;;;;;2.98;2.52;;;;;;;16.61;97.50;96019.12;1647528;86;21758;-85
2022/07/31 00:06:37;;;;;;;3.15;2.55;;;;;;;16.52;97.69;95991.63;1649309;86;21031;-85
2022/07/31 00:09:03;;;;;;;2.75;2.52;;;;;;;16.63;97.11;96014.45;1700920;83;21048;-85
2022/07/31 00:11:29;;;;;;;2.83;1.98;;;;;;;16.62;97.44;96007.61;1707477;83;21380;-85
2022/07/31 00:13:55;;;;;;;2.75;2.00;;;;;;;16.61;97.20;96015.20;1707717;83;22360;-84
2022/07/31 00:16:21;;;;;;;2.02;1.82;;;;;;;16.60;97.34;96007.05;1707329;82;21451;-85
2022/07/31 00:18:46;;;;;;;2.20;1.80;;;;;;;16.58;97.22;96006.45;1707173;83;21036;-85
2022/07/31 00:21:12;;;;;;;1.52;1.40;;;;;;;16.58;97.33;96009.58;1707651;82;21098;-86
2022/07/31 00:23:39;;;;;;;4.00;2.20;;;;;;;16.59;97.64;96008.55;1708413;82;21449;-85
2022/07/31 00:26:06;;;;;;;3.17;1.67;;;;;;;16.59;97.42;96007.24;1704357;82;21027;-85
2022/07/31 00:28:33;;;;;;;2.58;1.75;;;;;;;16.63;97.69;96003.95;1685433;82;22614;-85
2022/07/31 00:30:59;;;;;;;2.00;1.52;;;;;;;16.65;97.79;96008.45;1708226;83;21083;-85
2022/07/31 00:33:25;;;;;;;2.30;1.60;;;;;;;16.67;97.78;95997.25;1709382;82;21406;-85
2022/07/31 00:35:51;;;;;;;2.77;1.40;;;;;;;16.67;97.51;95997.25;1707055;82;20981;-84
2022/07/31 00:38:16;;;;;;;4.92;1.60;;;;;;;16.49;97.25;95968.49;1706667;82;21005;-85
2022/07/31 00:40:47;;;;;;;2.22;1.40;;;;;;;16.64;97.42;95992.44;1703687;83;21023;-85
2022/07/31 00:43:14;;;;;;;2.45;1.72;;;;;;;16.63;97.44;95992.16;1705403;82;21037;-85
2022/07/31 00:45:41;;;;;;;2.30;1.47;;;;;;;16.66;97.60;95996.14;1706390;82;21084;-84
2022/07/31 00:48:06;;;;;;;2.70;1.47;;;;;;;16.62;97.36;95993.18;1708843;82;21011;-83
2022/07/31 00:50:32;;;;;;;1.60;1.27;;;;;;;16.56;97.56;95991.97;1706067;82;20952;-85
2022/07/31 00:52:58;;;;;;;2.33;1.30;;;;;;;16.58;97.95;95995.95;1710224;82;20982;-86
2022/07/31 00:55:24;;;;;;;1.75;1.40;;;;;;;16.40;97.80;95967.22;1702226;82;20953;-84
2022/07/31 00:57:50;;;;;;;2.27;1.65;;;;;;;16.51;97.75;95995.28;1687464;82;21033;-85
2022/07/31 01:00:16;;;;;;;1.82;1.57;;;;;;;16.46;97.62;96005.16;1699201;84;20966;-85
2022/07/31 01:02:42;;;;;;;2.40;1.90;;;;;;;16.41;97.77;96003.70;1699334;82;21031;-85
2022/07/31 01:05:08;;;;;;;2.40;1.90;;;;;;;16.43;98.28;95999.06;1692884;82;21353;-85
2022/07/31 01:07:34;;;;;;;4.47;2.00;;;;;;;16.46;98.27;95999.11;1705024;82;21005;-85
2022/07/31 01:09:59;;;;;;;2.85;2.25;;;;;;;16.47;98.10;95998.08;1700362;82;21036;-84
2022/07/31 01:12:30;;;;;;;2.87;2.15;;;;;;;16.48;98.15;95998.37;1703557;82;21946;-85
2022/07/31 01:15:00;;;;;;;2.40;1.90;;;;;;;16.48;98.06;95993.13;1706410;82;20938;-84
2022/07/31 01:17:26;;;;;;;2.37;2.15;;;;;;;16.50;98.05;95995.80;1709879;82;20954;-85
2022/07/31 01:19:52;;;;;;;2.83;2.35;;;;;;;16.52;98.03;95999.50;1706730;83;21044;-85
2022/07/31 01:22:57;;;;;;;3.42;2.62;;;;;;;16.49;97.82;95986.84;1706229;82;21048;-85
2022/07/31 01:25:44;;;;;;;4.72;2.40;;;;;;;16.46;98.02;95998.59;1705385;82;20988;-85
2022/07/31 01:29:08;;;;;;;2.45;2.25;;;;;;;16.41;98.02;95991.91;1702386;83;21085;-86
2022/07/31 01:31:54;;;;;;;3.55;2.20;;;;;;;16.40;98.25;95996.06;1706419;82;21049;-85
2022/07/31 01:34:48;;;;;;;5.05;2.45;;;;;;;16.39;98.54;95999.20;1705162;82;21289;-85
2022/07/31 01:37:29;;;;;;;2.55;1.87;;;;;;;16.37;98.59;95994.70;1698521;82;20970;-85
2022/07/31 01:40:05;;;;;;;3.67;2.45;;;;;;;16.41;98.81;95990.59;1692880;84;21117;-85
2022/07/31 01:42:31;;;;;;;2.52;2.25;;;;;;;16.45;98.91;95989.65;1692714;83;21084;-84
2022/07/31 01:44:59;;;;;;;4.00;2.70;;;;;;;16.41;98.23;95983.23;1692351;83;20949;-84
2022/07/31 01:47:25;;;;;;;2.47;2.27;;;;;;;16.41;98.71;95989.80;1690049;83;21405;-84
2022/07/31 01:49:50;;;;;;;4.20;2.02;;;;;;;16.44;98.87;95984.13;1694704;83;20996;-85
2022/07/31 01:52:17;;;;;;;3.02;1.90;;;;;;;16.46;98.79;95978.93;1697691;83;21100;-85
2022/07/31 01:54:42;;;;;;;3.27;2.20;;;;;;;16.52;98.80;95981.14;1696255;83;20974;-84
2022/07/31 01:57:09;;;;;;;2.25;1.90;;;;;;;16.47;98.47;95970.03;1682016;83;21093;-84
2022/07/31 01:59:35;;;;;;;2.30;2.10;;;;;;;16.54;98.66;95972.53;1689191;83;21374;-84
2022/07/31 02:02:02;;;;;;;4.05;1.98;;;;;;;16.49;98.34;95968.49;1688492;83;20995;-84
2022/07/31 02:04:27;;;;;;;2.87;2.00;;;;;;;16.51;98.62;95972.98;1691082;83;20989;-84
2022/07/31 02:06:53;;;;;;;2.87;1.77;;;;;;;16.47;98.40;95973.97;1685165;83;21373;-85
2022/07/31 02:09:19;;;;;;;3.10;1.70;;;;;;;16.46;98.48;95967.64;1686080;83;21052;-87
2022/07/31 02:11:45;;;;;;;3.45;2.00;;;;;;;16.44;98.37;95960.52;1687594;83;20989;-85
2022/07/31 02:14:11;;;;;;;4.22;2.40;;;;;;;16.44;98.62;95962.63;1685213;83;21044;-85
2022/07/31 02:16:37;;;;;;;3.60;2.17;;;;;;;16.35;98.66;95940.90;1690416;83;21032;-85
2022/07/31 02:19:02;;;;;;;2.72;1.75;;;;;;;16.47;98.62;95957.44;1671553;83;21360;-85
2022/07/31 02:21:28;;;;;;;3.15;2.10;;;;;;;16.48;98.54;95954.58;1686634;83;21100;-84
2022/07/31 02:23:55;;;;;;;2.25;2.00;;;;;;;16.49;98.47;95951.45;1660329;85;21032;-84
2022/07/31 02:26:21;;;;;;;3.25;1.90;;;;;;;16.49;98.49;95952.76;1638154;87;21032;-85
2022/07/31 02:28:47;;;;;;;2.58;1.65;;;;;;;16.47;98.42;95953.50;1637599;86;21001;-85
2022/07/31 02:31:13;;;;;;;2.15;1.87;;;;;;;16.44;98.62;95948.72;1693537;83;21392;-85
2022/07/31 02:33:42;;;;;;;2.22;2.02;;;;;;;16.46;98.92;95942.73;1686090;83;20997;-84
2022/07/31 02:36:08;;;;;;;1.60;1.50;;;;;;;16.48;99.03;95945.41;1688564;83;20994;-85
2022/07/31 02:38:34;;;;;;;1.92;1.62;;;;;;;16.50;98.92;95941.23;1688007;83;20997;-85
2022/07/31 02:41:03;;;;;;;1.72;1.40;;;;;;;16.51;98.77;95942.83;1689596;83;20988;-85
2022/07/31 02:43:31;;;;;;;2.40;1.40;;;;;;;16.49;98.80;95949.62;1694756;82;21135;-85
2022/07/31 02:45:57;;;;;;;1.85;1.50;;;;;;;16.53;98.91;95951.27;1712883;82;21384;-85
2022/07/31 02:48:24;;;;;;;1.32;1.22;;;;;;;16.57;98.90;95946.35;1709409;82;20961;-85
2022/07/31 02:50:49;;;;;;;1.62;1.22;;;;;;;16.59;98.79;95953.47;1707734;83;20956;-84
2022/07/31 02:53:15;;;;;;;1.35;1.00;;;;;;;16.61;98.71;95950.13;1712447;82;21001;-85
2022/07/31 02:55:43;;;;;;;1.20;1.07;;;;;;;16.63;98.54;95953.33;1710246;83;21352;-85
2022/07/31 02:58:09;;;;;;;1.10;1.00;;;;;;;16.62;98.50;95959.08;1702632;82;21029;-83
2022/07/31 03:00:34;;;;;;;0.88;0.80;;;;;;;16.50;98.44;95938.10;1710021;82;21379;-85
2022/07/31 03:03:00;;;;;;;0.88;0.60;;;;;;;16.61;98.44;95968.50;1709166;82;21004;-85
2022/07/31 03:05:26;;;;;;;1.05;0.80;;;;;;;16.50;97.99;95963.02;1710899;82;20992;-85
2022/07/31 03:07:52;;;;;;;0.98;0.60;;;;;;;16.45;98.33;95968.16;1713389;82;21014;-85
2022/07/31 03:10:18;;;;;;;0.82;0.70;;;;;;;16.41;98.28;95963.06;1713937;82;20957;-84
2022/07/31 03:12:48;;;;;;;1.30;0.75;;;;;;;16.39;98.46;95965.62;1708172;82;21413;-84
2022/07/31 03:15:16;;;;;;;1.98;0.70;;;;;;;16.38;98.79;95970.59;1709531;82;21065;-84
2022/07/31 03:17:43;;;;;;;1.95;0.93;;;;;;;16.34;99.16;95968.14;1708559;82;21033;-85
2022/07/31 03:20:10;;;;;;;1.05;0.85;;;;;;;16.35;99.32;95974.98;1712329;82;21083;-85
2022/07/31 03:22:36;;;;;;;1.70;0.90;;;;;;;16.32;98.87;95972.82;1711089;82;21020;-84
2022/07/31 03:25:02;;;;;;;2.05;0.80;;;;;;;16.33;98.92;95970.48;1712567;82;20973;-85
2022/07/31 03:27:28;;;;;;;0.60;0.60;;;;;;;16.34;99.12;95972.88;1706626;82;20988;-85
2022/07/31 03:29:54;;;;;;;1.42;0.80;;;;;;;16.36;99.18;95980.00;1709646;82;21000;-85
2022/07/31 03:32:20;;;;;;;0.65;0.50;;;;;;;16.30;98.75;95985.36;1710985;82;20973;-84
2022/07/31 03:34:46;;;;;;;1.98;0.50;;;;;;;16.29;98.68;95987.19;1710194;82;21000;-84
2022/07/31 03:37:13;;;;;;;0.70;0.40;;;;;;;16.27;98.62;95981.86;1706124;82;21371;-84
2022/07/31 03:39:39;;;;;;;0.60;0.37;;;;;;;16.32;99.09;95988.55;1710521;82;21136;-85
2022/07/31 03:42:09;;;;;;;0.68;0.55;;;;;;;16.33;98.82;95988.33;1706572;82;21075;-85
2022/07/31 03:44:35;;;;;;;0.60;0.20;;;;;;;16.33;98.83;95995.39;1696971;83;21116;-83
2022/07/31 03:47:00;;;;;;;0.60;0.30;;;;;;;16.25;98.27;95993.89;1697646;83;21434;-85
2022/07/31 03:49:26;;;;;;;0.70;0.20;;;;;;;16.20;98.49;95997.70;1705613;83;21043;-85
2022/07/31 03:51:52;;;;;;;1.10;0.10;;;;;;;16.21;98.58;95999.30;1702283;83;21053;-85
2022/07/31 03:54:18;;;;;;;1.25;0.20;;;;;;;16.20;98.33;95996.39;1709496;83;20961;-83
2022/07/31 03:56:47;;;;;;;0.25;0.10;;;;;;;16.19;98.39;96005.28;1704489;83;21192;-83
2022/07/31 03:59:14;;;;;;;0.33;0.20;;;;;;;16.14;97.90;96005.97;1701420;83;21026;-85
2022/07/31 04:01:40;;;;;;;0.55;0.20;;;;;;;16.11;98.19;96001.19;1706230;83;20987;-84
2022/07/31 04:04:05;;;;;;;2.47;0.40;;;;;;;16.12;98.37;95998.84;1688567;83;21313;-84
2022/07/31 04:06:31;;;;;;;0.90;0.17;;;;;;;16.13;98.53;96011.44;1705789;83;20966;-85
2022/07/31 04:09:00;;;;;;;2.80;0.37;;;;;;;16.07;98.35;96005.25;1708247;83;20920;-85
2022/07/31 04:11:25;;;;;;;1.57;0.47;;;;;;;16.03;98.35;96015.11;1704074;83;21035;-84
2022/07/31 04:13:51;;;;;;;0.53;0.30;;;;;;;15.98;98.38;96018.41;1709344;83;21049;-84
2022/07/31 04:16:16;;;;;;;0.20;0.20;;;;;;;15.96;98.53;96007.87;1670709;84;20979;-84
2022/07/31 04:18:42;;;;;;;0.50;0.20;;;;;;;15.95;98.54;96013.63;1627014;86;20974;-84
2022/07/31 04:21:08;;;;;;;0.65;0.30;;;;;;;15.97;98.69;96012.88;1703721;83;21527;-85
2022/07/31 04:23:33;;;;;;;1.87;0.20;;;;;;;15.96;98.57;96019.66;1684954;83;21058;-84
2022/07/31 04:25:59;;;;;;;0.47;0.20;;;;;;;15.94;98.76;96019.86;1709947;83;21028;-84
2022/07/31 04:28:25;;;;;;;0.53;0.20;;;;;;;15.93;98.97;96023.50;1702462;83;21392;-83
2022/07/31 04:30:50;;;;;;;1.00;0.20;;;;;;;15.94;98.73;96025.61;1707514;83;20927;-84
2022/07/31 04:33:17;;;;;;;1.35;0.20;;;;;;;15.91;99.20;96026.86;1705226;82;21013;-84
2022/07/31 04:35:42;;;;;;;1.67;0.30;;;;;;;15.80;98.81;96034.98;1703791;83;21772;-83
2022/07/31 04:38:10;;;;;;;1.10;0.40;;;;;;;15.74;98.81;96035.06;1707803;83;20985;-85
2022/07/31 04:40:37;;;;;;;0.65;0.20;;;;;;;15.75;99.11;96041.90;1696654;83;21040;-85
2022/07/31 04:43:03;;;;;;;1.75;0.30;;;;;;;15.75;99.34;96040.59;1699147;83;21052;-83
2022/07/31 04:45:29;;;;;;;0.60;0.20;;;;;;;15.70;98.91;96047.02;1689983;83;21069;-82
2022/07/31 04:47:55;;;;;;;0.37;0.20;;;;;;;15.69;99.06;96046.22;1697998;83;21004;-84
2022/07/31 04:50:21;;;;;;;1.35;0.37;;;;;;;15.73;99.21;96042.63;1690007;83;20965;-82
2022/07/31 04:52:47;;;;;;;0.82;0.30;;;;;;;15.73;99.28;96047.36;1688489;83;20935;-83
2022/07/31 04:55:12;;;;;;;0.30;0.25;;;;;;;15.73;99.10;96055.22;1691513;83;21337;-85
2022/07/31 04:57:38;;;;;;;1.92;0.30;;;;;;;15.75;99.14;96055.00;1687707;83;21403;-84
2022/07/31 05:00:05;;;;;;;2.92;0.60;;;;;;;15.75;99.49;96061.03;1691400;83;20978;-85
2022/07/31 05:02:31;;;;;;;0.93;0.30;;;;;;;15.71;98.78;96062.50;1686981;83;20988;-85
2022/07/31 05:04:57;;;;;;;0.30;0.20;;;;;;;15.68;98.83;96062.16;1688716;83;20957;-86
2022/07/31 05:07:23;;;;;;;1.15;0.25;;;;;;;15.64;99.05;96065.73;1668460;83;21364;-83
2022/07/31 05:09:48;;;;;;;0.60;0.30;;;;;;;15.59;99.15;96065.57;1683843;83;20986;-83
2022/07/31 05:12:14;;;;;;;0.33;0.20;;;;;;;15.60;99.25;96075.82;1648173;85;20968;-84
2022/07/31 05:14:40;;;;;;;0.37;0.30;;;;;;;15.54;99.24;96067.52;1637306;87;21024;-83
2022/07/31 05:17:06;;;;;;;0.42;0.30;;;;;;;15.52;99.47;96069.56;1635918;87;21041;-84
2022/07/31 05:19:31;;;;;;;0.90;0.40;;;;;;;15.48;99.22;96069.72;1636133;87;21089;-85
2022/07/31 05:21:58;;;;;;;0.68;0.25;;;;;;;15.49;99.49;96073.94;1627408;87;21125;-84
2022/07/31 05:24:24;;;;;;;0.40;0.30;;;;;;;15.49;99.69;96066.08;1639557;86;21759;-84
2022/07/31 05:26:49;;;;;;;1.00;0.35;;;;;;;15.49;99.50;96070.00;1649144;86;21044;-83
2022/07/31 05:29:15;;;;;;;0.50;0.30;;;;;;;15.48;99.55;96071.53;1626840;86;21072;-83
2022/07/31 05:31:41;;;;;;;1.02;0.40;;;;;;;15.48;99.65;96073.64;1635675;87;21020;-83
2022/07/31 05:34:06;;;;;;;0.35;0.28;;;;;;;15.47;99.54;96082.52;1636158;87;20988;-84
2022/07/31 05:36:32;;;;;;;0.65;0.23;;;;;;;15.48;99.68;96073.64;1632636;87;21032;-83
2022/07/31 05:38:59;;;;;;;0.80;0.28;;;;;;;15.46;99.60;96086.16;1637073;87;21344;-84
2022/07/31 05:41:24;;;;;;;1.35;0.40;;;;;;;15.45;99.73;96084.53;1632730;87;21405;-83
2022/07/31 05:43:52;;;;;;;0.53;0.40;;;;;;;15.46;99.63;96091.91;1649160;85;21329;-83
2022/07/31 05:46:17;;;;;;;0.60;0.30;;;;;;;15.50;99.81;96085.20;1655251;85;21131;-83
2022/07/31 05:48:43;;;;;;;0.28;0.28;;;;;;;15.48;99.48;96089.86;1660863;85;21048;-85
2022/07/31 05:51:10;;;;;;;1.20;0.90;;;;;;;15.47;99.43;96089.06;1631360;86;21369;-83
2022/07/31 05:53:37;;;;;;;0.75;0.30;;;;;;;15.50;99.84;96091.23;1641901;86;20966;-85
2022/07/31 05:56:04;;;;;;;0.35;0.30;;;;;;;15.47;99.44;96103.98;1628781;86;21007;-83
2022/07/31 05:58:30;;;;;;;1.40;0.40;;;;;;;15.45;99.29;96104.17;1631355;87;21060;-83
2022/07/31 06:00:55;;;;;;;0.72;0.40;;;;;;;15.42;99.22;96103.30;1639775;87;20969;-82
2022/07/31 06:03:22;;;;;;;0.80;0.40;;;;;;;15.42;99.45;96107.23;1629028;87;20975;-84
2022/07/31 06:05:48;;;;;;;0.90;0.37;;;;;;;15.43;99.43;96112.75;1651925;85;20995;-85
2022/07/31 06:08:13;;;;;;;0.42;0.30;;;;;;;15.40;99.41;96114.51;1652967;85;21012;-85
2022/07/31 06:10:39;;;;;;;0.62;0.50;;;;;;;15.39;99.52;96131.74;1622908;87;21424;-86
2022/07/31 06:13:05;;;;;;;1.75;1.30;;;;;;;15.33;99.92;96133.42;1623810;86;21124;-84
2022/07/31 06:15:31;;;;;;;1.02;0.85;;;;;;;15.29;99.37;96138.78;1621851;86;21021;-84
2022/07/31 06:17:57;;;;;;;1.20;0.85;;;;;;;15.25;99.26;96138.41;1625028;86;21143;-83
2022/07/31 06:20:24;;;;;;;1.80;1.40;;;;;;;15.21;99.25;96136.45;1637578;87;21095;-83
2022/07/31 06:22:49;;;;;;;1.77;0.90;;;;;;;15.18;99.19;96150.78;1626566;87;21074;-82
2022/07/31 06:25:15;;;;;;;1.17;0.80;;;;;;;15.17;99.22;96152.31;1638558;86;21337;-85
2022/07/31 06:27:41;;;;;;;1.42;1.05;;;;;;;15.11;99.23;96155.77;1639824;86;21559;-85
2022/07/31 06:30:08;;;;;;;1.62;1.10;;;;;;;15.03;98.91;96149.52;1619229;88;21039;-84
2022/07/31 06:32:33;;;;;;;1.30;1.00;;;;;;;14.98;99.30;96161.43;1630469;87;20979;-82
2022/07/31 06:34:59;;;;;;;2.05;1.05;;;;;;;14.96;99.72;96167.36;1644710;86;21016;-82
2022/07/31 06:37:25;;;;;;;1.40;0.93;;;;;;;14.93;99.30;96162.56;1628864;87;21047;-82
2022/07/31 06:39:52;;;;;;;1.55;1.10;;;;;;;14.91;99.38;96160.66;1642346;86;20965;-84
2022/07/31 06:42:21;;;;;;;1.42;1.00;;;;;;;14.93;99.54;96162.56;1638148;86;21501;-82
2022/07/31 06:44:48;;;;;;;1.40;0.90;;;;;;;14.90;99.34;96166.91;1697650;82;21423;-82
2022/07/31 06:47:17;;;;;;;1.20;0.90;;;;;;;14.90;99.70;96166.12;1708548;82;21016;-82
2022/07/31 06:49:43;;;;;;;0.90;0.80;;;;;;;14.94;99.75;96177.75;1708825;82;21473;-83
2022/07/31 06:52:09;;;;;;;1.77;1.00;;;;;;;14.94;99.58;96179.05;1705700;82;20972;-83
2022/07/31 06:54:34;;;;;;;1.15;0.80;;;;;;;14.90;99.56;96183.92;1703958;82;20992;-83
2022/07/31 06:57:00;;;;;;;1.70;1.22;;;;;;;14.88;99.38;96180.72;1704174;82;21984;-83
2022/07/31 06:59:26;;;;;;;2.10;0.90;;;;;;;14.87;99.47;96179.12;1702017;82;21005;-81
2022/07/31 07:01:51;;;;;;;1.12;0.80;;;;;;;14.89;99.66;96173.67;1708290;82;21062;-82
2022/07/31 07:04:17;;;;;;;1.20;0.90;;;;;;;14.89;99.54;96177.09;1707636;82;21348;-83
2022/07/31 07:06:43;;;;;;;1.35;1.02;;;;;;;14.89;99.69;96177.09;1710035;82;21052;-83
2022/07/31 07:09:09;;;;;;;1.35;0.90;;;;;;;14.86;99.54;96172.80;1692827;82;21036;-82
2022/07/31 07:11:35;;;;;;;0.90;0.70;;;;;;;14.91;99.89;96175.05;1708034;82;21024;-83
2022/07/31 07:14:00;;;;;;;1.25;0.80;;;;;;;14.95;99.84;96174.11;1709265;82;21036;-83
2022/07/31 07:16:26;;;;;;;1.30;0.80;;;;;;;14.95;99.89;96176.73;1710307;82;20971;-83
2022/07/31 07:18:52;;;;;;;1.07;0.80;;;;;;;14.88;99.83;96178.10;1700568;82;21399;-82
2022/07/31 07:21:18;;;;;;;1.12;1.02;;;;;;;14.88;99.20;96183.34;1707816;82;21379;-82
2022/07/31 07:23:43;;;;;;;1.85;1.55;;;;;;;14.80;99.16;96181.47;1707544;82;20981;-82
2022/07/31 07:26:09;;;;;;;1.52;1.25;;;;;;;14.79;99.42;96182.48;1706916;82;21069;-82
2022/07/31 07:28:35;;;;;;;1.42;1.05;;;;;;;14.83;99.69;96181.87;1648267;85;21517;-82
2022/07/31 07:31:03;;;;;;;1.92;1.62;;;;;;;14.85;99.31;96182.97;1664321;84;21143;-82
2022/07/31 07:33:30;;;;;;;1.72;1.45;;;;;;;14.85;99.32;96192.13;1641475;85;21015;-82
2022/07/31 07:35:56;;;;;;;1.20;1.07;;;;;;;14.80;98.94;96198.47;1660879;85;20988;-82
2022/07/31 07:38:22;;;;;;;1.15;1.05;;;;;;;14.75;98.86;96203.05;1647085;85;21015;-82
2022/07/31 07:40:48;;;;;;;2.37;1.32;;;;;;;14.69;98.13;96211.23;1655438;85;21387;-82
2022/07/31 07:43:14;;;;;;;3.17;1.55;;;;;;;14.58;97.91;96200.14;1713651;82;21050;-83
2022/07/31 07:45:41;;;;;;;1.95;1.22;;;;;;;14.55;98.23;96208.91;1681287;82;21592;-82
2022/07/31 07:48:07;;;;;;;2.58;1.62;;;;;;;14.53;98.22;96214.86;1704706;82;21027;-81
2022/07/31 07:50:33;;;;;;;1.75;1.60;;;;;;;14.46;97.99;96214.88;1705455;82;21025;-82
2022/07/31 07:52:58;;;;;;;2.50;1.70;;;;;;;14.39;98.07;96214.90;1709715;82;21366;-82
2022/07/31 07:55:25;;;;;;;1.50;1.30;;;;;;;14.35;98.07;96212.41;1700854;82;21026;-82
2022/07/31 07:57:51;;;;;;;3.33;1.87;;;;;;;14.34;98.55;96207.40;1711368;82;21036;-83
2022/07/31 08:00:17;;;;;;;1.90;1.30;;;;;;;14.33;98.54;96205.30;1714897;82;21048;-82
2022/07/31 08:02:45;;;;;;;2.83;1.57;;;;;;;14.33;99.38;96203.98;1716083;81;21003;-82
2022/07/31 08:05:10;;;;;;;2.70;1.65;;;;;;;14.26;98.28;96204.51;1702641;82;21040;-82
2022/07/31 08:07:38;;;;;;;2.10;1.65;;;;;;;14.25;98.91;96205.52;1711233;82;21088;-82
2022/07/31 08:10:04;;;;;;;1.82;1.62;;;;;;;14.26;99.10;96201.89;1709022;82;21023;-82
2022/07/31 08:12:30;;;;;;;1.70;1.50;;;;;;;14.26;99.04;96202.41;1648824;85;21048;-84
2022/07/31 08:14:56;;;;;;;2.45;1.80;;;;;;;14.31;99.21;96203.37;1649613;85;21291;-82
2022/07/31 08:17:22;;;;;;;1.72;1.50;;;;;;;14.34;99.49;96206.09;1663154;85;21041;-83
2022/07/31 08:19:47;;;;;;;2.52;1.50;;;;;;;14.34;99.25;96206.89;1713865;82;20953;-83
2022/07/31 08:22:13;;;;;;;1.60;1.42;;;;;;;14.32;99.03;96215.45;1643271;85;21341;-82
2022/07/31 08:24:39;;;;;;;1.80;1.30;;;;;;;14.32;99.16;96207.61;1675261;85;21411;-83
2022/07/31 08:27:22;;;;;;;2.12;1.67;;;;;;;14.34;99.12;96217.34;1676507;85;20996;-84
2022/07/31 08:29:49;;;;;;;3.05;1.70;;;;;;;14.33;98.96;96209.72;1700734;82;21036;-83
2022/07/31 08:32:15;;;;;;;4.25;1.70;;;;;;;14.30;98.90;96213.52;1704744;82;20995;-81
2022/07/31 08:34:41;;;;;;;1.85;1.75;;;;;;;14.31;99.31;96213.82;1693242;82;22347;-82
2022/07/31 08:37:07;;;;;;;2.65;1.60;;;;;;;14.23;99.37;96197.09;1709894;82;20968;-83
2022/07/31 08:39:33;;;;;;;2.35;1.62;;;;;;;14.35;99.37;96219.45;1711430;82;21326;-82
2022/07/31 08:42:05;;;;;;;2.92;1.75;;;;;;;14.31;98.49;96220.86;1710173;82;20996;-82
2022/07/31 08:44:36;;;;;;;2.62;1.90;;;;;;;14.26;99.00;96226.72;1707928;82;21527;-83
2022/07/31 08:47:11;;;;;;;4.00;1.82;;;;;;;14.26;99.17;96218.08;1705705;82;21057;-82
2022/07/31 08:49:45;;;;;;;2.67;1.57;;;;;;;14.26;99.11;96216.77;1709326;82;21027;-82
2022/07/31 08:52:23;;;;;;;3.87;1.65;;;;;;;14.22;99.04;96227.35;1709791;82;20984;-81
2022/07/31 08:54:51;;;;;;;3.98;1.98;;;;;;;14.22;99.25;96227.35;1697323;82;21517;-83
2022/07/31 08:57:17;;;;;;;2.30;2.08;;;;;;;14.18;99.35;96224.36;1685822;83;21092;-83
2022/07/31 08:59:43;;;;;;;2.10;1.75;;;;;;;14.17;99.44;96230.59;1684156;83;21376;-83
2022/07/31 09:02:11;;;;;;;2.30;2.02;;;;;;;14.23;99.80;96220.61;1681667;83;21095;-82
2022/07/31 09:04:36;;;;;;;3.83;2.08;;;;;;;14.30;99.88;96214.83;1674960;83;21027;-82
2022/07/31 09:07:02;;;;;;;2.27;2.08;;;;;;;14.34;99.67;96213.42;1661177;84;21007;-82
2022/07/31 09:09:28;;;;;;;2.05;1.87;;;;;;;14.33;99.53;96222.79;1678560;83;21058;-81
2022/07/31 09:11:54;;;;;;;2.00;1.80;;;;;;;14.27;99.13;96229.63;1674784;83;20995;-82
2022/07/31 09:14:33;;;;;;;2.52;1.82;;;;;;;14.28;99.42;96231.23;1645105;85;21193;-83
2022/07/31 09:16:59;;;;;;;2.40;1.95;;;;;;;14.31;99.54;96227.39;1649485;85;21009;-83
2022/07/31 09:19:38;;;;;;;2.27;1.90;;;;;;;14.33;99.86;96231.94;1651122;85;21001;-82
2022/07/31 09:22:04;;;;;;;2.52;2.30;;;;;;;14.34;100.00;96223.88;1631629;86;21366;-82
2022/07/31 09:24:33;;;;;;;2.65;1.95;;;;;;;14.33;99.89;96227.51;1639660;86;21496;-83
2022/07/31 09:27:08;;;;;;;2.15;1.90;;;;;;;14.39;100.00;96227.17;1646406;85;21023;-83
2022/07/31 09:29:36;;;;;;;2.27;1.95;;;;;;;14.44;100.00;96229.18;1646854;86;20986;-82
2022/07/31 09:32:13;;;;;;;2.98;1.77;;;;;;;14.50;100.00;96229.67;1654733;85;20976;-83
2022/07/31 09:34:40;;;;;;;2.08;1.65;;;;;;;14.55;100.00;96237.67;1648146;85;20992;-82
2022/07/31 09:37:14;;;;;;;2.27;2.08;;;;;;;14.53;99.98;96239.20;1645609;85;21637;-84
2022/07/31 09:39:40;;;;;;;2.65;1.95;;;;;;;14.52;99.77;96239.41;1648577;86;21471;-83
2022/07/31 09:42:07;;;;;;;2.02;1.80;;;;;;;14.53;99.84;96237.89;1656762;85;21047;-82
2022/07/31 09:44:40;;;;;;;2.10;1.87;;;;;;;14.57;100.00;96234.34;1654638;85;21133;-83
2022/07/31 09:47:06;;;;;;;2.15;1.70;;;;;;;14.57;99.52;96233.03;1626011;87;20980;-82
2022/07/31 09:49:33;;;;;;;1.87;1.70;;;;;;;14.57;99.80;96233.03;1613788;88;21262;-83
2022/07/31 09:52:02;;;;;;;2.55;1.60;;;;;;;14.60;99.94;96231.30;1625609;86;21117;-82
2022/07/31 09:54:29;;;;;;;3.27;1.80;;;;;;;14.66;100.00;96234.40;1625702;86;21027;-81
2022/07/31 09:56:55;;;;;;;1.60;1.50;;;;;;;14.63;99.92;96231.67;1617259;87;21384;-83
2022/07/31 09:59:21;;;;;;;2.62;1.65;;;;;;;14.64;100.00;96245.55;1597238;88;21007;-83
2022/07/31 10:01:47;;;;;;;2.55;2.22;;;;;;;14.67;100.00;96239.42;1602721;88;21020;-83
2022/07/31 10:04:17;;;;;;;1.80;1.70;;;;;;;14.66;100.00;96244.36;1607451;88;21060;-84
2022/07/31 10:06:47;;;;;;;2.08;1.87;;;;;;;14.68;100.00;96242.33;1603608;88;21030;-83
2022/07/31 10:09:13;;;;;;;2.62;2.17;;;;;;;14.71;100.00;96238.48;1606511;88;21077;-84
2022/07/31 10:11:39;;;;;;;2.60;1.60;;;;;;;14.75;100.00;96238.35;1607457;88;21462;-83
2022/07/31 10:14:05;;;;;;;1.30;1.20;;;;;;;14.74;100.00;96230.72;1589652;89;21005;-84
2022/07/31 10:16:33;;;;;;;2.95;1.65;;;;;;;14.78;100.00;96236.61;1597917;89;21074;-83
2022/07/31 10:18:59;;;;;;;2.58;2.37;;;;;;;14.80;100.00;96241.63;1603536;88;20995;-83
2022/07/31 10:21:30;;;;;;;4.15;3.12;;;;;;;14.77;100.00;96246.78;1582206;89;21489;-83
2022/07/31 10:23:56;;;;;;;3.67;2.10;;;;;;;14.82;100.00;96245.66;1604927;88;21004;-82
2022/07/31 10:26:21;;;;;;;16.73;12.23;;;;;;;14.82;100.00;96249.59;1577242;89;21034;-83
2022/07/31 10:28:47;;;;;;;9.73;7.95;;;;;;;14.83;100.00;96251.19;1584144;90;21052;-82
2022/07/31 10:31:13;;;;;;;2.95;2.42;;;;;;;14.84;99.85;96247.56;1568420;89;21079;-83
2022/07/31 10:33:39;;;;;;;7.62;6.92;;;;;;;14.83;99.60;96247.27;1597436;88;21107;-82
2022/07/31 10:36:15;;;;;;;2.52;2.02;;;;;;;14.85;100.00;96247.05;1590433;88;21015;-83
2022/07/31 10:39:06;;;;;;;2.20;2.00;;;;;;;14.85;99.67;96253.09;1606417;88;22080;-82
2022/07/31 10:42:09;;;;;;;7.05;6.33;;;;;;;14.82;99.58;96246.98;1605759;88;21031;-82
2022/07/31 10:44:42;;;;;;;;;;;;;;;14.77;99.51;96249.40;1607858;88;21038;-84
2022/07/31 10:47:13;;;;;;;1.57;1.37;;;;;;;14.76;100.00;96250.92;1637982;85;20160;-82
2022/07/31 10:49:49;;;;;;;3.87;3.00;;;;;;;14.72;100.00;96251.85;1612265;86;20993;-83
2022/07/31 10:52:30;;;;;;;3.83;3.52;;;;;;;14.72;100.00;96254.47;1639542;85;22112;-84
2022/07/31 10:55:00;;;;;;;2.80;2.60;;;;;;;14.71;100.00;96256.80;1642929;85;21393;-83
2022/07/31 10:57:32;;;;;;;2.80;2.60;;;;;;;14.71;100.00;96255.48;1639319;85;21049;-83
2022/07/31 11:00:18;;;;;;;2.22;2.02;;;;;;;14.74;100.00;96258.18;1605623;87;21470;-83
2022/07/31 11:02:44;;;;;;;1.70;1.52;;;;;;;14.79;100.00;96256.53;1637437;86;21035;-83
2022/07/31 11:05:26;;;;;;;1.90;1.70;;;;;;;14.79;100.00;96257.03;1672422;84;20967;-83
2022/07/31 11:08:00;;;;;;;2.37;2.17;;;;;;;14.80;100.00;96256.82;1679593;84;20979;-82
2022/07/31 11:10:26;;;;;;;4.33;3.98;;;;;;;14.83;100.00;96259.04;1678707;84;20956;-83
2022/07/31 11:13:12;;;;;;;3.37;3.08;;;;;;;14.90;100.00;96261.09;1685647;83;21048;-82
2022/07/31 11:15:38;;;;;;;2.37;2.17;;;;;;;14.96;100.00;96258.92;1689510;83;21434;-82
2022/07/31 11:18:18;;;;;;;1.90;1.70;;;;;;;14.99;100.00;96255.11;1693758;83;21016;-82
2022/07/31 11:20:47;;;;;;;3.30;2.83;;;;;;;15.02;100.00;96252.06;1673368;83;21141;-84
2022/07/31 11:23:15;;;;;;;2.75;2.33;;;;;;;14.99;100.00;96259.84;1677936;83;21042;-83
2022/07/31 11:25:41;;;;;;;2.27;2.00;;;;;;;14.97;100.00;96252.70;1684588;83;20957;-82
2022/07/31 11:28:15;;;;;;;2.55;2.22;;;;;;;14.99;100.00;96255.11;1676969;83;20971;-83
2022/07/31 11:31:01;;;;;;;2.27;2.08;;;;;;;14.99;100.00;96255.91;1685897;83;20985;-82
2022/07/31 11:33:38;;;;;;;2.40;2.10;;;;;;;15.01;100.00;96264.86;1695283;83;20998;-83
2022/07/31 11:36:15;;;;;;;4.47;3.47;;;;;;;15.01;100.00;96261.73;1684726;83;21020;-83